Time;durP1;ratioP1;P1;durP2;ratioP2;P2;SDS_P1;SDS_P2;PMS_P1;PMS_P2;Temp;Humidity;BMP_temperature;BMP_pressure;BME280_temperature;BME280_humidity;BME280_pressure;Samples;Min_cycle;Max_cycle;Signal;HPM_P1;HPM_P2
2023/03/01 00:00:37;;;;;;;;;;;;;;;15.61;49.51;101823.41;4999198;28;1914;-59
2023/03/01 00:03:03;;;;;;;;;;;;;;;16.99;46.38;101818.88;4998883;28;1211;-59
2023/03/01 00:05:28;;;;;;;;;;;;;;;17.49;45.04;101819.84;4998499;28;1013;-60
2023/03/01 00:07:54;;;;;;;;;;;;;;;16.49;47.42;101823.22;4998007;28;1141;-60
2023/03/01 00:10:19;;;;;;;;;;;;;;;16.07;48.34;101821.63;4998383;28;1111;-59
2023/03/01 00:12:45;;;;;;;;;;;;;;;15.82;48.81;101824.69;4998698;28;1049;-59
2023/03/01 00:15:11;;;;;;;;;;;;;;;15.63;49.26;101811.13;4998057;28;1204;-59
2023/03/01 00:17:36;;;;;;;;;;;;;;;15.47;49.86;101818.16;4997989;28;1053;-60
2023/03/01 00:20:02;;;;;;;;;;;;;;;16.90;46.56;101819.28;4998187;28;1910;-59
2023/03/01 00:22:28;;;;;;;;;;;;;;;17.05;45.93;101824.19;4997970;28;1056;-60
2023/03/01 00:24:53;;;;;;;;;;;;;;;16.26;47.94;101819.53;4998215;28;1040;-59
2023/03/01 00:27:19;;;;;;;;;;;;;;;15.90;48.86;101816.09;4998641;28;1045;-59
2023/03/01 00:29:45;;;;;;;;;;;;;;;15.70;49.06;101817.31;4998374;28;1140;-59
2023/03/01 00:32:10;;;;;;;;;;;;;;;16.53;47.58;101813.41;4998078;28;1053;-59
2023/03/01 00:34:36;;;;;;;;;;;;;;;17.46;45.00;101812.97;4998227;28;1271;-59
2023/03/01 00:37:05;;;;;;;;;;;;;;;16.44;47.30;101799.28;4997878;28;1172;-59
2023/03/01 00:39:30;;;;;;;;;;;;;;;16.02;48.42;101796.81;4980529;28;1918;-59
2023/03/01 00:41:56;;;;;;;;;;;;;;;15.83;49.02;101777.81;4997632;28;1040;-59
2023/03/01 00:44:22;;;;;;;;;;;;;;;15.63;49.51;101789.19;4998112;28;1221;-59
2023/03/01 00:46:48;;;;;;;;;;;;;;;15.49;49.49;101787.81;4980126;28;1195;-59
2023/03/01 00:49:14;;;;;;;;;;;;;;;16.76;46.59;101790.47;4998156;28;1204;-58
2023/03/01 00:51:41;;;;;;;;;;;;;;;17.59;44.54;101778.75;4998137;28;1009;-59
2023/03/01 00:54:09;;;;;;;;;;;;;;;16.50;47.01;101781.78;4997147;28;917;-59
2023/03/01 00:56:35;;;;;;;;;;;;;;;16.08;48.38;101785.72;4997588;28;1113;-59
2023/03/01 00:59:01;;;;;;;;;;;;;;;15.79;48.78;101771.16;4997932;28;1135;-59
2023/03/01 01:01:30;;;;;;;;;;;;;;;16.79;46.58;101778.13;4980154;28;1910;-59
2023/03/01 01:04:00;;;;;;;;;;;;;;;17.18;45.55;101764.44;4997631;28;1057;-59
2023/03/01 01:06:32;;;;;;;;;;;;;;;16.30;47.84;101768.56;4997259;28;1136;-59
2023/03/01 01:08:58;;;;;;;;;;;;;;;15.98;48.38;101763.59;4997621;28;1137;-59
2023/03/01 01:11:24;;;;;;;;;;;;;;;15.79;49.04;101764.81;4979923;28;1112;-59
2023/03/01 01:13:50;;;;;;;;;;;;;;;15.55;49.30;101754.75;4979932;28;1064;-59
2023/03/01 01:16:15;;;;;;;;;;;;;;;16.68;46.80;101760.69;4997268;28;1080;-59
2023/03/01 01:18:41;;;;;;;;;;;;;;;17.79;44.37;101765.25;4996857;28;867;-59
2023/03/01 01:21:09;;;;;;;;;;;;;;;16.76;46.57;101763.81;4996447;28;1979;-60
2023/03/01 01:23:34;;;;;;;;;;;;;;;16.23;47.81;101765.13;4979678;28;1081;-59
2023/03/01 01:26:03;;;;;;;;;;;;;;;15.93;48.48;101754.41;4997422;28;1132;-59
2023/03/01 01:28:29;;;;;;;;;;;;;;;15.71;49.01;101750.41;4997196;28;1044;-59
2023/03/01 01:30:54;;;;;;;;;;;;;;;15.59;49.49;101748.81;4979014;28;1014;-59
2023/03/01 01:33:20;;;;;;;;;;;;;;;16.31;47.66;101750.97;4997319;28;1044;-59
2023/03/01 01:35:46;;;;;;;;;;;;;;;17.48;44.70;101764.03;4996739;28;1318;-59
2023/03/01 01:38:11;;;;;;;;;;;;;;;16.46;47.14;101755.09;4996760;28;997;-59
2023/03/01 01:40:43;;;;;;;;;;;;;;;15.97;48.58;101761.91;4996805;28;1985;-59
2023/03/01 01:43:13;;;;;;;;;;;;;;;15.73;49.02;101750.19;4979505;28;1253;-59
2023/03/01 01:45:39;;;;;;;;;;;;;;;15.59;49.49;101754.28;5012008;28;1113;-59
2023/03/01 01:48:05;;;;;;;;;;;;;;;16.73;46.57;101756.09;4996576;28;922;-59
2023/03/01 01:50:37;;;;;;;;;;;;;;;17.55;44.57;101752.84;5012029;28;1143;-59
2023/03/01 01:53:05;;;;;;;;;;;;;;;16.45;47.16;101761.66;4996770;28;1156;-59
2023/03/01 01:55:30;;;;;;;;;;;;;;;15.97;48.20;101750.94;4996624;28;1128;-59
2023/03/01 01:57:58;;;;;;;;;;;;;;;15.80;48.78;101750.06;4997131;28;1033;-59
2023/03/01 02:00:25;;;;;;;;;;;;;;;15.59;49.18;101746.06;5011752;28;1910;-58
2023/03/01 02:03:03;;;;;;;;;;;;;;;16.16;48.09;101747.97;4996863;28;993;-59
2023/03/01 02:05:35;;;;;;;;;;;;;;;17.40;45.03;101750.72;4993501;28;1476;-58
2023/03/01 02:08:00;;;;;;;;;;;;;;;16.40;47.53;101749.50;4996324;28;910;-58
2023/03/01 02:10:26;;;;;;;;;;;;;;;15.95;48.17;101746.75;5012052;28;938;-59
2023/03/01 02:12:52;;;;;;;;;;;;;;;15.69;49.14;101755.31;4995439;28;1107;-59
2023/03/01 02:15:17;;;;;;;;;;;;;;;15.64;49.35;101762.59;4978988;28;1155;-59
2023/03/01 02:17:43;;;;;;;;;;;;;;;17.20;45.28;101767.78;4996770;28;1086;-59
2023/03/01 02:20:20;;;;;;;;;;;;;;;16.64;46.53;101762.25;5011279;28;1906;-59
2023/03/01 02:22:46;;;;;;;;;;;;;;;16.02;48.29;101759.28;4978670;28;1885;-59
2023/03/01 02:25:23;;;;;;;;;;;;;;;15.78;48.83;101765.88;4996760;28;1033;-59
2023/03/01 02:27:52;;;;;;;;;;;;;;;15.63;49.31;101756.28;4996730;28;1123;-59
2023/03/01 02:30:21;;;;;;;;;;;;;;;17.23;45.64;101757.09;4978556;28;1211;-59
2023/03/01 02:32:46;;;;;;;;;;;;;;;16.83;46.16;101755.41;4981880;28;1423;-59
2023/03/01 02:35:13;;;;;;;;;;;;;;;16.19;47.96;101759.31;5000622;28;1041;-59
2023/03/01 02:37:39;;;;;;;;;;;;;;;15.92;48.66;101767.28;5000140;28;1049;-59
2023/03/01 02:40:06;;;;;;;;;;;;;;;15.77;49.16;101777.94;4998672;28;1914;-60
2023/03/01 02:42:32;;;;;;;;;;;;;;;17.34;45.11;101780.06;5015465;28;1056;-60
2023/03/01 02:44:58;;;;;;;;;;;;;;;16.81;46.39;101773.22;4999696;28;1073;-59
2023/03/01 02:47:24;;;;;;;;;;;;;;;16.25;47.82;101782.19;5014745;28;1317;-60
2023/03/01 02:49:49;;;;;;;;;;;;;;;15.89;48.46;101785.09;5010414;28;942;-59
2023/03/01 02:52:24;;;;;;;;;;;;;;;15.73;48.83;101780.34;5015178;28;1110;-60
2023/03/01 02:54:55;;;;;;;;;;;;;;;15.54;49.52;101785.16;4990546;28;1554;-59
2023/03/01 02:57:22;;;;;;;;;;;;;;;17.13;45.71;101784.47;4983663;28;1446;-59
2023/03/01 02:59:47;;;;;;;;;;;;;;;17.08;45.39;101785.22;4966287;28;1971;-59
2023/03/01 03:02:20;;;;;;;;;;;;;;;16.38;47.19;101783.78;4979063;28;1211;-60
2023/03/01 03:04:46;;;;;;;;;;;;;;;15.96;48.52;101781.34;4994804;28;1100;-58
2023/03/01 03:07:12;;;;;;;;;;;;;;;15.74;48.92;101782.84;5014631;28;1403;-58
2023/03/01 03:09:38;;;;;;;;;;;;;;;15.56;49.14;101788.50;4982057;28;1263;-61
2023/03/01 03:12:04;;;;;;;;;;;;;;;16.65;46.80;101792.22;4999467;28;1211;-61
2023/03/01 03:14:30;;;;;;;;;;;;;;;17.46;44.71;101788.22;5008141;28;1227;-61
2023/03/01 03:16:55;;;;;;;;;;;;;;;16.47;47.18;101787.78;4982835;28;1122;-58
2023/03/01 03:19:21;;;;;;;;;;;;;;;16.05;48.00;101791.69;4988563;28;2227;-56
2023/03/01 03:21:46;;;;;;;;;;;;;;;15.80;48.61;101786.53;4990125;28;1340;-60
2023/03/01 03:24:12;;;;;;;;;;;;;;;17.39;45.23;101782.91;4998110;28;1236;-60
2023/03/01 03:26:38;;;;;;;;;;;;;;;16.94;45.93;101781.16;4998927;28;1091;-53
2023/03/01 03:29:04;;;;;;;;;;;;;;;16.32;47.33;101780.09;4993761;28;1577;-55
2023/03/01 03:31:29;;;;;;;;;;;;;;;16.00;48.07;101777.88;4993102;28;1567;-55
2023/03/01 03:33:55;;;;;;;;;;;;;;;15.77;48.79;101781.53;4998045;28;1010;-53
2023/03/01 03:36:22;;;;;;;;;;;;;;;17.35;45.32;101786.38;4999180;28;1041;-59
2023/03/01 03:38:48;;;;;;;;;;;;;;;16.87;46.18;101791.44;4999059;28;1065;-59
2023/03/01 03:41:14;;;;;;;;;;;;;;;16.29;47.35;101780.59;4999308;28;1910;-59
2023/03/01 03:43:40;;;;;;;;;;;;;;;15.98;48.10;101766.31;4997763;28;1041;-60
2023/03/01 03:46:06;;;;;;;;;;;;;;;15.76;48.88;101765.31;4998464;28;1093;-59
2023/03/01 03:48:34;;;;;;;;;;;;;;;16.61;46.84;101760.84;4999159;28;1084;-61
2023/03/01 03:51:00;;;;;;;;;;;;;;;17.22;45.39;101754.63;4998733;28;1033;-58
2023/03/01 03:53:26;;;;;;;;;;;;;;;16.33;47.16;101745.28;4998733;28;1057;-57
2023/03/01 03:55:52;;;;;;;;;;;;;;;15.98;48.10;101747.13;4998359;28;1131;-58
2023/03/01 03:58:19;;;;;;;;;;;;;;;15.76;48.77;101743.38;5013688;28;1078;-55
2023/03/01 04:00:45;;;;;;;;;;;;;;;15.86;48.66;101744.41;4998588;28;1971;-58
2023/03/01 04:03:11;;;;;;;;;;;;;;;17.43;44.93;101736.47;5007592;28;1595;-56
2023/03/01 04:05:37;;;;;;;;;;;;;;;16.78;46.18;101738.84;5013952;28;1128;-54
2023/03/01 04:08:02;;;;;;;;;;;;;;;16.20;47.58;101727.19;4994124;28;1569;-58
2023/03/01 04:10:32;;;;;;;;;;;;;;;15.90;48.29;101731.06;4998479;28;1129;-55
2023/03/01 04:12:57;;;;;;;;;;;;;;;15.69;48.91;101733.38;4998260;28;1243;-56
2023/03/01 04:15:23;;;;;;;;;;;;;;;16.63;46.79;101728.44;5013404;28;1043;-55
2023/03/01 04:17:50;;;;;;;;;;;;;;;17.61;44.14;101722.41;4998509;28;1128;-55
2023/03/01 04:20:24;;;;;;;;;;;;;;;16.53;46.87;101726.38;4998064;28;1910;-55
2023/03/01 04:22:57;;;;;;;;;;;;;;;16.10;47.92;101725.09;4997676;28;1021;-55
2023/03/01 04:25:22;;;;;;;;;;;;;;;15.87;48.64;101739.78;4998369;28;1148;-56
2023/03/01 04:27:51;;;;;;;;;;;;;;;15.69;48.98;101738.84;4997915;28;1081;-61
2023/03/01 04:30:17;;;;;;;;;;;;;;;15.88;48.73;101730.47;4998440;28;1120;-63
2023/03/01 04:32:42;;;;;;;;;;;;;;;17.44;44.92;101749.94;4998086;28;966;-57
2023/03/01 04:35:08;;;;;;;;;;;;;;;16.97;45.73;101750.44;4998020;28;1037;-57
2023/03/01 04:37:34;;;;;;;;;;;;;;;16.29;47.52;101750.41;4998005;28;1204;-57
2023/03/01 04:40:00;;;;;;;;;;;;;;;15.98;48.16;101752.59;4998334;28;1979;-58
2023/03/01 04:42:26;;;;;;;;;;;;;;;15.77;48.87;101756.84;4997889;28;1068;-56
2023/03/01 04:44:52;;;;;;;;;;;;;;;15.57;49.28;101749.88;4996879;28;1430;-57
2023/03/01 04:47:17;;;;;;;;;;;;;;;15.65;49.31;101748.63;4998007;28;1104;-60
2023/03/01 04:49:43;;;;;;;;;;;;;;;17.22;45.30;101749.97;4998008;28;1084;-56
2023/03/01 04:52:09;;;;;;;;;;;;;;;16.94;45.86;101742.69;4997335;28;1200;-56
2023/03/01 04:54:34;;;;;;;;;;;;;;;16.16;47.80;101747.97;4997769;28;1139;-56
2023/03/01 04:57:00;;;;;;;;;;;;;;;15.85;48.44;101747.41;4997642;28;1176;-55
2023/03/01 04:59:26;;;;;;;;;;;;;;;15.60;49.24;101737.59;5010353;28;1942;-57
2023/03/01 05:01:52;;;;;;;;;;;;;;;15.48;49.51;101742.28;4997620;28;887;-55
2023/03/01 05:04:17;;;;;;;;;;;;;;;15.93;48.46;101737.97;4997370;28;1153;-57
2023/03/01 05:06:43;;;;;;;;;;;;;;;17.36;44.93;101750.44;4997429;28;1248;-58
2023/03/01 05:09:09;;;;;;;;;;;;;;;16.41;46.95;101750.31;4997482;28;1072;-57
2023/03/01 05:11:35;;;;;;;;;;;;;;;15.87;48.30;101743.34;4997774;28;1061;-56
2023/03/01 05:14:01;;;;;;;;;;;;;;;15.66;49.13;101744.00;4996958;28;1165;-55
2023/03/01 05:16:27;;;;;;;;;;;;;;;15.51;49.38;101742.59;4997496;28;1060;-51
2023/03/01 05:18:55;;;;;;;;;;;;;;;15.74;48.97;101741.69;4997096;28;1152;-60
2023/03/01 05:21:21;;;;;;;;;;;;;;;17.31;44.93;101747.59;5011719;28;1993;-60
2023/03/01 05:23:46;;;;;;;;;;;;;;;16.83;46.06;101741.69;4997278;28;1160;-52
2023/03/01 05:26:12;;;;;;;;;;;;;;;16.12;47.68;101733.94;4997132;28;1067;-59
2023/03/01 05:28:38;;;;;;;;;;;;;;;15.79;48.70;101732.75;5012201;28;1080;-59
2023/03/01 05:31:09;;;;;;;;;;;;;;;15.64;48.88;101741.50;4997201;28;1108;-58
2023/03/01 05:33:38;;;;;;;;;;;;;;;15.50;49.22;101740.97;4994903;28;1196;-59
2023/03/01 05:36:04;;;;;;;;;;;;;;;17.13;45.29;101745.16;5006478;28;895;-61
2023/03/01 05:38:29;;;;;;;;;;;;;;;16.85;45.85;101752.41;4996653;28;1200;-60
2023/03/01 05:40:55;;;;;;;;;;;;;;;16.12;47.85;101747.66;4996631;28;1914;-60
2023/03/01 05:43:21;;;;;;;;;;;;;;;15.78;48.54;101752.19;4996407;28;1137;-61
2023/03/01 05:45:46;;;;;;;;;;;;;;;15.54;49.29;101746.75;4996360;28;870;-60
2023/03/01 05:48:12;;;;;;;;;;;;;;;15.44;49.37;101741.09;4996793;28;883;-61
2023/03/01 05:50:39;;;;;;;;;;;;;;;15.50;49.49;101737.34;4996471;28;1017;-61
2023/03/01 05:53:19;;;;;;;;;;;;;;;17.11;45.29;101753.66;4996357;28;1172;-61
2023/03/01 05:55:47;;;;;;;;;;;;;;;16.82;45.92;101751.00;4992048;28;1192;-61
2023/03/01 05:58:16;;;;;;;;;;;;;;;16.08;47.96;101752.78;4996433;28;1105;-61
2023/03/01 06:00:42;;;;;;;;;;;;;;;15.76;48.62;101746.94;4996199;28;1983;-59
2023/03/01 06:03:09;;;;;;;;;;;;;;;15.53;49.10;101753.34;4998662;28;1239;-57
2023/03/01 06:05:34;;;;;;;;;;;;;;;16.01;48.36;101757.59;5011318;28;1317;-57
2023/03/01 06:08:00;;;;;;;;;;;;;;;17.46;44.51;101757.97;5004465;28;1268;-57
2023/03/01 06:10:25;;;;;;;;;;;;;;;16.49;46.95;101757.34;5009647;28;1188;-59
2023/03/01 06:12:51;;;;;;;;;;;;;;;15.98;48.20;101769.06;5002671;28;1144;-57
2023/03/01 06:15:16;;;;;;;;;;;;;;;17.16;45.68;101761.97;5002898;28;809;-57
2023/03/01 06:17:43;;;;;;;;;;;;;;;15.92;48.38;101761.81;5002507;28;945;-57
2023/03/01 06:20:12;;;;;;;;;;;;;;;15.78;48.49;101764.00;5002421;28;1882;-58
2023/03/01 06:22:38;;;;;;;;;;;;;;;16.50;47.26;101759.00;5002463;28;1057;-57
2023/03/01 06:25:04;;;;;;;;;;;;;;;15.78;48.00;101758.50;5005695;28;983;-54
2023/03/01 06:27:30;;;;;;;;;;;;;;;16.17;48.36;101752.38;5001986;28;962;-57
2023/03/01 06:29:55;;;;;;;;;;;;;;;16.19;47.86;101742.00;5002818;28;1080;-57
2023/03/01 06:32:21;;;;;;;;;;;;;;;15.70;48.18;101743.25;5002370;28;1100;-57
2023/03/01 06:34:46;;;;;;;;;;;;;;;16.74;47.11;101754.16;5002052;28;1065;-54
2023/03/01 06:37:12;;;;;;;;;;;;;;;15.78;48.44;101746.69;5002987;28;851;-57
2023/03/01 06:39:37;;;;;;;;;;;;;;;16.33;47.76;101740.59;5002440;28;1930;-56
2023/03/01 06:42:03;;;;;;;;;;;;;;;16.58;47.07;101739.38;5002448;28;1044;-55
2023/03/01 06:44:29;;;;;;;;;;;;;;;15.95;47.74;101746.75;5002151;28;1156;-54
2023/03/01 06:46:54;;;;;;;;;;;;;;;16.96;46.65;101740.53;5002576;28;860;-54
2023/03/01 06:49:20;;;;;;;;;;;;;;;16.14;47.84;101736.44;5002217;28;1117;-56
2023/03/01 06:51:46;;;;;;;;;;;;;;;16.01;48.24;101741.13;5002318;28;1089;-53
2023/03/01 06:54:13;;;;;;;;;;;;;;;17.09;46.33;101734.66;5008577;28;1189;-53
2023/03/01 06:56:39;;;;;;;;;;;;;;;16.10;47.87;101746.22;5009877;28;1192;-50
2023/03/01 06:59:04;;;;;;;;;;;;;;;15.96;48.02;101748.44;5007209;28;1216;-56
2023/03/01 07:01:30;;;;;;;;;;;;;;;16.96;46.94;101757.00;5002845;28;1914;-55
2023/03/01 07:03:56;;;;;;;;;;;;;;;16.06;47.83;101759.59;5002050;28;1145;-56
2023/03/01 07:06:21;;;;;;;;;;;;;;;17.83;45.16;101748.22;5002192;28;1306;-51
2023/03/01 07:08:47;;;;;;;;;;;;;;;16.87;47.14;101747.50;5001533;28;1338;-54
2023/03/01 07:11:12;;;;;;;;;;;;;;;16.30;47.40;101753.97;5002270;28;1400;-53
2023/03/01 07:13:38;;;;;;;;;;;;;;;15.94;47.48;101750.63;5002748;28;1267;-56
2023/03/01 07:16:04;;;;;;;;;;;;;;;16.67;47.27;101742.53;5002579;28;1274;-56
2023/03/01 07:18:29;;;;;;;;;;;;;;;16.03;47.90;101743.63;4998937;28;1345;-51
2023/03/01 07:20:55;;;;;;;;;;;;;;;17.19;46.58;101749.63;4999195;28;1906;-57
2023/03/01 07:23:20;;;;;;;;;;;;;;;16.57;47.52;101759.66;4999211;28;1259;-56
2023/03/01 07:25:53;;;;;;;;;;;;;;;16.36;48.37;101764.81;5003250;28;1258;-50
2023/03/01 07:28:18;;;;;;;;;;;;;;;17.61;45.65;101768.31;5005886;28;929;-53
2023/03/01 07:30:44;;;;;;;;;;;;;;;16.43;47.73;101770.97;5002449;28;1363;-56
2023/03/01 07:33:10;;;;;;;;;;;;;;;16.11;47.35;101767.94;4999128;28;941;-51
2023/03/01 07:35:35;;;;;;;;;;;;;;;15.96;46.94;101764.91;4999562;28;1195;-56
2023/03/01 07:38:01;;;;;;;;;;;;;;;15.77;46.54;101762.31;5011171;28;1125;-47
2023/03/01 07:40:26;;;;;;;;;;;;;;;17.20;46.39;101765.88;5003812;28;1995;-48
2023/03/01 07:42:56;;;;;;;;;;;;;;;16.45;47.84;101756.16;5000457;28;893;-52
2023/03/01 07:45:21;;;;;;;;;;;;;;;16.01;47.55;101754.84;4999444;28;1156;-50
2023/03/01 07:47:47;;;;;;;;;;;;;;;16.87;47.31;101747.50;5007742;28;1038;-52
2023/03/01 07:50:13;;;;;;;;;;;;;;;16.21;48.03;101746.16;5011649;28;1187;-54
2023/03/01 07:52:39;;;;;;;;;;;;;;;15.97;48.35;101755.59;4999198;28;1066;-54
2023/03/01 07:55:04;;;;;;;;;;;;;;;16.68;47.28;101744.19;4998659;28;1000;-55
2023/03/01 07:57:31;;;;;;;;;;;;;;;16.07;48.13;101742.91;4999614;28;1064;-55
2023/03/01 07:59:56;;;;;;;;;;;;;;;17.99;44.99;101757.50;4998821;28;1902;-54
2023/03/01 08:02:22;;;;;;;;;;;;;;;16.79;47.50;101750.66;4998084;28;1029;-56
2023/03/01 08:04:48;;;;;;;;;;;;;;;16.15;48.10;101752.63;5009019;28;1192;-55
2023/03/01 08:07:13;;;;;;;;;;;;;;;16.11;47.56;101756.13;5002547;28;1152;-56
2023/03/01 08:09:39;;;;;;;;;;;;;;;16.89;47.45;101748.94;4997852;28;1144;-55
2023/03/01 08:12:04;;;;;;;;;;;;;;;16.18;47.95;101746.66;4999212;28;1512;-55
2023/03/01 08:14:31;;;;;;;;;;;;;;;16.46;47.90;101746.84;4998289;28;1156;-50
2023/03/01 08:16:56;;;;;;;;;;;;;;;16.55;47.90;101748.09;5003543;28;1262;-54
2023/03/01 08:19:22;;;;;;;;;;;;;;;16.01;48.06;101752.09;5003516;28;1283;-52
2023/03/01 08:21:47;;;;;;;;;;;;;;;17.45;46.15;101748.88;4998092;28;1902;-55
2023/03/01 08:24:13;;;;;;;;;;;;;;;16.31;48.02;101745.50;5004873;28;1161;-54
2023/03/01 08:26:39;;;;;;;;;;;;;;;16.97;47.31;101753.19;5004065;28;826;-54
2023/03/01 08:29:04;;;;;;;;;;;;;;;17.22;46.55;101749.13;5003882;28;1048;-49
2023/03/01 08:31:35;;;;;;;;;;;;;;;16.39;47.50;101745.09;5005345;28;1247;-51
2023/03/01 08:34:01;;;;;;;;;;;;;;;16.70;47.65;101745.59;4998083;28;1120;-55
2023/03/01 08:36:27;;;;;;;;;;;;;;;16.46;47.74;101747.69;4997720;28;1164;-51
2023/03/01 08:38:53;;;;;;;;;;;;;;;16.11;47.40;101737.75;4997912;28;949;-51
2023/03/01 08:41:18;;;;;;;;;;;;;;;16.01;46.88;101746.63;5001110;28;1965;-54
2023/03/01 08:43:44;;;;;;;;;;;;;;;17.49;46.23;101748.34;4997987;28;1104;-54
2023/03/01 08:46:10;;;;;;;;;;;;;;;16.40;47.64;101754.19;4997579;28;1085;-54
2023/03/01 08:48:35;;;;;;;;;;;;;;;16.32;48.06;101752.66;4999632;28;1093;-53
2023/03/01 08:51:14;;;;;;;;;;;;;;;17.01;46.93;101759.84;5001689;28;877;-55
2023/03/01 08:53:39;;;;;;;;;;;;;;;16.22;47.84;101747.00;4998313;28;1156;-54
2023/03/01 08:56:05;;;;;;;;;;;;;;;16.90;47.39;101749.75;4997127;28;1164;-51
2023/03/01 08:58:31;;;;;;;;;;;;;;;16.76;47.20;101739.09;4998117;28;923;-53
2023/03/01 09:00:56;;;;;;;;;;;;;;;16.23;47.53;101735.78;4999966;28;1902;-55
2023/03/01 09:03:22;;;;;;;;;;;;;;;17.03;46.96;101743.09;4996979;28;887;-53
2023/03/01 09:05:50;;;;;;;;;;;;;;;16.46;47.78;101746.84;4997162;28;1056;-52
2023/03/01 09:08:19;;;;;;;;;;;;;;;17.02;47.32;101747.75;4997417;28;1112;-53
2023/03/01 09:10:44;;;;;;;;;;;;;;;17.50;45.66;101744.53;5002024;28;1038;-57
2023/03/01 09:13:10;;;;;;;;;;;;;;;16.58;47.33;101744.88;5008888;28;1220;-56
2023/03/01 09:15:38;;;;;;;;;;;;;;;16.27;46.94;101744.34;5005479;28;1282;-55
2023/03/01 09:18:04;;;;;;;;;;;;;;;16.06;46.66;101733.00;4999637;28;1286;-55
2023/03/01 09:20:30;;;;;;;;;;;;;;;16.85;46.87;101746.94;4997462;28;1981;-56
2023/03/01 09:22:56;;;;;;;;;;;;;;;16.12;47.57;101744.06;4997139;28;893;-55
2023/03/01 09:25:21;;;;;;;;;;;;;;;16.96;46.82;101740.53;4996983;28;1044;-55
2023/03/01 09:27:47;;;;;;;;;;;;;;;16.53;47.51;101742.03;4997250;28;934;-51
2023/03/01 09:30:13;;;;;;;;;;;;;;;16.14;47.48;101741.91;5002511;28;1291;-53
2023/03/01 09:32:42;;;;;;;;;;;;;;;17.39;46.17;101743.56;5003733;28;1199;-56
2023/03/01 09:35:08;;;;;;;;;;;;;;;16.38;47.25;101746.19;4990686;28;1132;-56
2023/03/01 09:37:34;;;;;;;;;;;;;;;17.97;45.07;101748.69;4999134;28;994;-57
2023/03/01 09:40:00;;;;;;;;;;;;;;;17.52;46.16;101745.94;4999624;28;1973;-56
2023/03/01 09:42:25;;;;;;;;;;;;;;;16.67;47.51;101740.59;4995539;28;1017;-56
2023/03/01 09:44:51;;;;;;;;;;;;;;;16.37;47.32;101735.47;5010712;28;1113;-56
2023/03/01 09:47:17;;;;;;;;;;;;;;;16.72;47.53;101737.13;5002989;28;1052;-56
2023/03/01 09:49:48;;;;;;;;;;;;;;;17.10;46.84;101732.75;5008107;28;938;-52
2023/03/01 09:52:29;;;;;;;;;;;;;;;16.33;47.51;101729.63;5005325;28;1042;-56
2023/03/01 09:54:55;;;;;;;;;;;;;;;16.13;47.06;101738.34;5004873;28;1037;-57
2023/03/01 09:57:33;;;;;;;;;;;;;;;17.16;46.42;101733.66;5013404;28;958;-55
2023/03/01 09:59:58;;;;;;;;;;;;;;;16.20;47.87;101732.69;5009887;28;1902;-59
2023/03/01 10:02:29;;;;;;;;;;;;;;;16.06;46.77;101729.41;4994421;28;972;-48
2023/03/01 10:04:57;;;;;;;;;;;;;;;17.29;46.50;101730.50;5010237;28;1033;-55
2023/03/01 10:07:32;;;;;;;;;;;;;;;16.49;47.55;101735.38;4996185;28;1026;-56
2023/03/01 10:09:58;;;;;;;;;;;;;;;17.70;45.66;101727.47;5009988;28;1124;-53
2023/03/01 10:12:25;;;;;;;;;;;;;;;17.58;45.80;101717.41;5013371;28;982;-57
2023/03/01 10:15:02;;;;;;;;;;;;;;;16.68;47.16;101723.06;4996442;28;1183;-56
2023/03/01 10:17:36;;;;;;;;;;;;;;;16.30;47.23;101721.03;5005127;28;1113;-57
2023/03/01 10:20:14;;;;;;;;;;;;;;;16.77;47.26;101720.69;4996043;28;1903;-58
2023/03/01 10:22:40;;;;;;;;;;;;;;;16.48;47.24;101715.34;5006617;28;1101;-56
2023/03/01 10:25:05;;;;;;;;;;;;;;;16.05;47.30;101717.63;5009648;28;1209;-58
2023/03/01 10:27:35;;;;;;;;;;;;;;;16.96;46.81;101710.31;4994565;28;1122;-58
2023/03/01 10:30:15;;;;;;;;;;;;;;;16.56;47.63;101703.09;4995875;28;1223;-57
2023/03/01 10:32:41;;;;;;;;;;;;;;;17.01;47.20;101696.66;5010077;28;1099;-57
2023/03/01 10:35:23;;;;;;;;;;;;;;;17.57;45.67;101693.75;4994429;28;1064;-59
2023/03/01 10:38:04;;;;;;;;;;;;;;;16.54;47.10;101702.50;4991947;28;1072;-58
2023/03/01 10:40:30;;;;;;;;;;;;;;;16.21;47.13;101695.94;4994500;28;1898;-50
2023/03/01 10:42:57;;;;;;;;;;;;;;;16.42;47.03;101686.13;4993254;28;1182;-54
2023/03/01 10:45:29;;;;;;;;;;;;;;;16.87;47.19;101687.06;5009847;28;1205;-53
2023/03/01 10:48:19;;;;;;;;;;;;;;;16.26;47.30;101676.81;4994419;28;1017;-56
2023/03/01 10:50:48;;;;;;;;;;;;;;;17.08;46.95;101688.19;5001406;28;1741;-55
2023/03/01 10:53:21;;;;;;;;;;;;;;;16.53;47.63;101678.88;5023075;28;1294;-57
2023/03/01 10:55:47;;;;;;;;;;;;;;;16.68;47.37;101692.84;5005435;28;1137;-58
2023/03/01 10:58:18;;;;;;;;;;;;;;;17.50;45.98;101682.13;5001783;28;1385;-58
2023/03/01 11:00:47;;;;;;;;;;;;;;;16.52;47.51;101682.69;5007510;28;1977;-57
2023/03/01 11:03:13;;;;;;;;;;;;;;;16.30;46.79;101671.66;5009530;28;1196;-54
2023/03/01 11:05:59;;;;;;;;;;;;;;;16.06;46.63;101664.41;5000376;28;1354;-59
2023/03/01 11:08:51;;;;;;;;;;;;;;;17.10;46.45;101664.88;4999476;28;1305;-57
2023/03/01 11:11:33;;;;;;;;;;;;;;;16.16;47.41;101660.16;4991062;28;1406;-58
2023/03/01 11:13:58;;;;;;;;;;;;;;;16.02;47.04;101659.66;5000095;28;1203;-57
2023/03/01 11:16:37;;;;;;;;;;;;;;;17.12;46.38;101655.56;4999337;28;1049;-58
2023/03/01 11:19:08;;;;;;;;;;;;;;;16.15;47.45;101650.28;5014970;28;1023;-58
2023/03/01 11:21:34;;;;;;;;;;;;;;;18.05;45.12;101651.88;4999407;28;1906;-57
2023/03/01 11:24:00;;;;;;;;;;;;;;;16.87;47.07;101643.09;5014328;28;1087;-58
2023/03/01 11:26:26;;;;;;;;;;;;;;;16.36;47.37;101633.06;5001687;28;1036;-58
2023/03/01 11:28:52;;;;;;;;;;;;;;;16.16;46.70;101633.56;5002389;28;1255;-58
2023/03/01 11:31:18;;;;;;;;;;;;;;;16.06;46.47;101634.25;4989554;28;1061;-58
2023/03/01 11:34:02;;;;;;;;;;;;;;;17.65;45.78;101615.44;5007123;28;1195;-58
2023/03/01 11:36:46;;;;;;;;;;;;;;;16.45;47.71;101622.47;4998106;28;933;-58
2023/03/01 11:39:18;;;;;;;;;;;;;;;16.16;46.91;101621.75;4998848;28;1165;-59
2023/03/01 11:41:43;;;;;;;;;;;;;;;17.23;46.36;101607.84;4999137;28;1962;-55
2023/03/01 11:44:11;;;;;;;;;;;;;;;16.37;47.24;101601.78;5014422;28;1184;-58
2023/03/01 11:46:40;;;;;;;;;;;;;;;16.16;46.80;101606.13;5013795;28;1064;-59
2023/03/01 11:49:08;;;;;;;;;;;;;;;16.52;47.01;101605.81;4999212;28;1053;-64
2023/03/01 11:51:38;;;;;;;;;;;;;;;16.46;47.48;101609.59;4999022;28;1165;-62
2023/03/01 11:54:10;;;;;;;;;;;;;;;16.40;47.78;101617.75;4998632;28;1139;-60
2023/03/01 11:56:39;;;;;;;;;;;;;;;17.71;45.38;101608.91;4998774;28;1200;-61
2023/03/01 11:59:17;;;;;;;;;;;;;;;16.51;47.32;101605.00;5013751;28;1076;-61
2023/03/01 12:01:42;;;;;;;;;;;;;;;16.52;47.79;101598.44;5009170;28;1985;-62
2023/03/01 12:04:26;;;;;;;;;;;;;;;16.92;46.69;101597.31;5002298;28;1242;-57
2023/03/01 12:07:27;;;;;;;;;;;;;;;16.25;47.21;101590.06;4998624;28;985;-60
2023/03/01 12:10:01;;;;;;;;;;;;;;;17.16;46.25;101588.81;4977172;28;1184;-58
2023/03/01 12:12:28;;;;;;;;;;;;;;;16.34;47.13;101579.50;4994748;28;1014;-60
2023/03/01 12:14:53;;;;;;;;;;;;;;;16.99;46.86;101582.59;4998438;28;1005;-59
2023/03/01 12:17:45;;;;;;;;;;;;;;;16.92;46.78;101578.09;4998720;28;1137;-61
2023/03/01 12:20:20;;;;;;;;;;;;;;;16.27;47.14;101578.84;4999236;28;1971;-63
2023/03/01 12:23:14;;;;;;;;;;;;;;;16.13;46.61;101573.72;4998260;28;1121;-63
2023/03/01 12:25:53;;;;;;;;;;;;;;;17.09;46.49;101580.75;5013866;28;1211;-58
2023/03/01 12:28:37;;;;;;;;;;;;;;;16.29;47.55;101573.94;5012945;28;1391;-60
2023/03/01 12:31:06;;;;;;;;;;;;;;;17.57;45.59;101574.66;5013457;28;1123;-58
2023/03/01 12:33:34;;;;;;;;;;;;;;;16.58;47.10;101580.13;4998235;28;1107;-58
2023/03/01 12:35:59;;;;;;;;;;;;;;;16.18;47.03;101581.19;5008703;28;1266;-59
2023/03/01 12:38:33;;;;;;;;;;;;;;;16.20;47.23;101587.25;5000354;28;1051;-59
2023/03/01 12:40:59;;;;;;;;;;;;;;;16.53;47.42;101583.59;5008375;28;1913;-59
2023/03/01 12:43:25;;;;;;;;;;;;;;;16.08;47.31;101582.69;5006423;28;1203;-60
2023/03/01 12:45:53;;;;;;;;;;;;;;;16.60;46.87;101578.75;5007959;28;1195;-60
2023/03/01 12:48:25;;;;;;;;;;;;;;;16.75;46.80;101575.38;5005716;28;1247;-58
2023/03/01 12:50:54;;;;;;;;;;;;;;;17.23;46.20;101570.19;5008748;28;1271;-58